sensor_id;sensor_type;location;lat;lon;timestamp;P1;durP1;ratioP1;P2;durP2;ratioP2
28431;SDS011;15664;51.302;7.744;2023-02-28T00:00:18;6.82;;;2.58;;
28431;SDS011;15664;51.302;7.744;2023-02-28T00:02:44;6.75;;;2.60;;
28431;SDS011;15664;51.302;7.744;2023-02-28T00:05:11;6.85;;;2.65;;
28431;SDS011;15664;51.302;7.744;2023-02-28T00:07:39;8.07;;;2.70;;
28431;SDS011;15664;51.302;7.744;2023-02-28T00:10:05;7.00;;;2.47;;
28431;SDS011;15664;51.302;7.744;2023-02-28T00:12:32;9.20;;;2.90;;
28431;SDS011;15664;51.302;7.744;2023-02-28T00:14:58;5.95;;;2.28;;
28431;SDS011;15664;51.302;7.744;2023-02-28T00:17:24;7.53;;;3.05;;
28431;SDS011;15664;51.302;7.744;2023-02-28T00:19:50;8.60;;;2.70;;
28431;SDS011;15664;51.302;7.744;2023-02-28T00:22:17;9.75;;;3.42;;
28431;SDS011;15664;51.302;7.744;2023-02-28T00:24:44;6.63;;;2.65;;
28431;SDS011;15664;51.302;7.744;2023-02-28T00:27:10;7.32;;;2.75;;
28431;SDS011;15664;51.302;7.744;2023-02-28T00:29:36;6.47;;;2.80;;
28431;SDS011;15664;51.302;7.744;2023-02-28T00:32:02;5.88;;;2.58;;
28431;SDS011;15664;51.302;7.744;2023-02-28T00:34:29;6.30;;;2.28;;
28431;SDS011;15664;51.302;7.744;2023-02-28T00:36:55;9.73;;;2.35;;
28431;SDS011;15664;51.302;7.744;2023-02-28T00:39:21;5.93;;;2.47;;
28431;SDS011;15664;51.302;7.744;2023-02-28T00:41:47;5.03;;;2.42;;
28431;SDS011;15664;51.302;7.744;2023-02-28T00:44:13;5.85;;;2.22;;
28431;SDS011;15664;51.302;7.744;2023-02-28T00:46:38;5.90;;;1.90;;
28431;SDS011;15664;51.302;7.744;2023-02-28T00:49:04;6.60;;;2.70;;
28431;SDS011;15664;51.302;7.744;2023-02-28T00:51:29;6.33;;;2.40;;
28431;SDS011;15664;51.302;7.744;2023-02-28T00:53:56;6.05;;;2.67;;
28431;SDS011;15664;51.302;7.744;2023-02-28T00:56:22;7.40;;;2.63;;
28431;SDS011;15664;51.302;7.744;2023-02-28T00:58:48;6.10;;;2.37;;
28431;SDS011;15664;51.302;7.744;2023-02-28T01:01:14;7.27;;;3.10;;
28431;SDS011;15664;51.302;7.744;2023-02-28T01:03:39;6.80;;;2.38;;
28431;SDS011;15664;51.302;7.744;2023-02-28T01:06:05;7.25;;;2.08;;
28431;SDS011;15664;51.302;7.744;2023-02-28T01:08:30;7.83;;;2.50;;
28431;SDS011;15664;51.302;7.744;2023-02-28T01:10:56;5.67;;;2.37;;
28431;SDS011;15664;51.302;7.744;2023-02-28T01:13:22;7.78;;;2.45;;
28431;SDS011;15664;51.302;7.744;2023-02-28T01:15:50;6.72;;;2.38;;
28431;SDS011;15664;51.302;7.744;2023-02-28T01:18:18;5.28;;;2.25;;
28431;SDS011;15664;51.302;7.744;2023-02-28T01:20:45;6.53;;;2.23;;
28431;SDS011;15664;51.302;7.744;2023-02-28T01:23:11;7.18;;;2.05;;
28431;SDS011;15664;51.302;7.744;2023-02-28T01:25:37;6.35;;;2.40;;
28431;SDS011;15664;51.302;7.744;2023-02-28T01:28:03;5.50;;;1.90;;
28431;SDS011;15664;51.302;7.744;2023-02-28T01:30:31;6.57;;;2.05;;
28431;SDS011;15664;51.302;7.744;2023-02-28T01:32:56;6.22;;;2.25;;
28431;SDS011;15664;51.302;7.744;2023-02-28T01:35:24;6.15;;;1.90;;
28431;SDS011;15664;51.302;7.744;2023-02-28T01:37:49;5.72;;;1.95;;
28431;SDS011;15664;51.302;7.744;2023-02-28T01:40:15;5.57;;;2.10;;
28431;SDS011;15664;51.302;7.744;2023-02-28T01:42:40;3.80;;;1.63;;
28431;SDS011;15664;51.302;7.744;2023-02-28T01:47:58;3.33;;;1.75;;
28431;SDS011;15664;51.302;7.744;2023-02-28T01:50:28;4.47;;;1.70;;
28431;SDS011;15664;51.302;7.744;2023-02-28T01:52:59;4.60;;;1.92;;
28431;SDS011;15664;51.302;7.744;2023-02-28T01:55:30;6.53;;;2.10;;
28431;SDS011;15664;51.302;7.744;2023-02-28T01:57:58;6.10;;;1.90;;
28431;SDS011;15664;51.302;7.744;2023-02-28T02:00:27;5.18;;;1.80;;
28431;SDS011;15664;51.302;7.744;2023-02-28T02:03:13;4.65;;;1.77;;
28431;SDS011;15664;51.302;7.744;2023-02-28T02:05:44;4.28;;;1.70;;
28431;SDS011;15664;51.302;7.744;2023-02-28T02:08:26;4.33;;;1.80;;
28431;SDS011;15664;51.302;7.744;2023-02-28T02:21:57;3.80;;;1.50;;
28431;SDS011;15664;51.302;7.744;2023-02-28T02:27:39;4.97;;;1.95;;
28431;SDS011;15664;51.302;7.744;2023-02-28T02:38:43;4.60;;;2.00;;
28431;SDS011;15664;51.302;7.744;2023-02-28T02:41:16;4.63;;;1.90;;
28431;SDS011;15664;51.302;7.744;2023-02-28T02:43:53;4.90;;;2.20;;
28431;SDS011;15664;51.302;7.744;2023-02-28T02:46:28;5.88;;;2.15;;
28431;SDS011;15664;51.302;7.744;2023-02-28T02:49:00;7.45;;;2.33;;
28431;SDS011;15664;51.302;7.744;2023-02-28T02:51:29;4.72;;;1.85;;
28431;SDS011;15664;51.302;7.744;2023-02-28T02:54:00;4.03;;;1.58;;
28431;SDS011;15664;51.302;7.744;2023-02-28T02:56:31;7.03;;;2.35;;
28431;SDS011;15664;51.302;7.744;2023-02-28T02:59:01;6.53;;;2.00;;
28431;SDS011;15664;51.302;7.744;2023-02-28T03:01:30;4.07;;;1.75;;
28431;SDS011;15664;51.302;7.744;2023-02-28T03:03:58;7.80;;;2.20;;
28431;SDS011;15664;51.302;7.744;2023-02-28T03:06:26;5.72;;;2.20;;
28431;SDS011;15664;51.302;7.744;2023-02-28T03:08:52;4.87;;;1.87;;
28431;SDS011;15664;51.302;7.744;2023-02-28T03:11:18;5.40;;;1.93;;
28431;SDS011;15664;51.302;7.744;2023-02-28T03:22:38;6.45;;;2.15;;
28431;SDS011;15664;51.302;7.744;2023-02-28T03:33:13;4.65;;;2.05;;
28431;SDS011;15664;51.302;7.744;2023-02-28T03:35:44;7.97;;;2.03;;
28431;SDS011;15664;51.302;7.744;2023-02-28T03:38:15;4.13;;;1.75;;
28431;SDS011;15664;51.302;7.744;2023-02-28T03:40:50;6.47;;;2.08;;
28431;SDS011;15664;51.302;7.744;2023-02-28T03:43:21;4.78;;;2.17;;
28431;SDS011;15664;51.302;7.744;2023-02-28T03:45:52;4.73;;;1.77;;
28431;SDS011;15664;51.302;7.744;2023-02-28T03:50:57;4.60;;;1.63;;
28431;SDS011;15664;51.302;7.744;2023-02-28T03:53:29;4.45;;;1.65;;
28431;SDS011;15664;51.302;7.744;2023-02-28T04:01:47;4.75;;;1.98;;
28431;SDS011;15664;51.302;7.744;2023-02-28T04:04:15;6.77;;;2.07;;
28431;SDS011;15664;51.302;7.744;2023-02-28T04:06:42;5.00;;;2.08;;
28431;SDS011;15664;51.302;7.744;2023-02-28T04:09:10;5.53;;;1.98;;
28431;SDS011;15664;51.302;7.744;2023-02-28T04:11:38;6.25;;;2.25;;
28431;SDS011;15664;51.302;7.744;2023-02-28T04:14:06;4.83;;;1.80;;
28431;SDS011;15664;51.302;7.744;2023-02-28T04:16:33;4.53;;;2.00;;
28431;SDS011;15664;51.302;7.744;2023-02-28T04:19:03;3.75;;;1.70;;
28431;SDS011;15664;51.302;7.744;2023-02-28T04:21:31;5.13;;;2.05;;
28431;SDS011;15664;51.302;7.744;2023-02-28T04:23:57;5.65;;;1.90;;
28431;SDS011;15664;51.302;7.744;2023-02-28T04:26:28;4.38;;;1.75;;
28431;SDS011;15664;51.302;7.744;2023-02-28T04:28:55;4.00;;;1.95;;
28431;SDS011;15664;51.302;7.744;2023-02-28T04:31:21;6.03;;;1.97;;
28431;SDS011;15664;51.302;7.744;2023-02-28T04:33:46;5.30;;;2.33;;
28431;SDS011;15664;51.302;7.744;2023-02-28T04:36:12;5.13;;;2.00;;
28431;SDS011;15664;51.302;7.744;2023-02-28T04:38:39;6.43;;;2.25;;
28431;SDS011;15664;51.302;7.744;2023-02-28T04:41:05;5.33;;;2.30;;
28431;SDS011;15664;51.302;7.744;2023-02-28T04:43:31;4.93;;;2.17;;
28431;SDS011;15664;51.302;7.744;2023-02-28T04:45:57;4.87;;;2.07;;
28431;SDS011;15664;51.302;7.744;2023-02-28T04:48:25;5.90;;;2.25;;
28431;SDS011;15664;51.302;7.744;2023-02-28T04:50:53;6.55;;;2.17;;
28431;SDS011;15664;51.302;7.744;2023-02-28T04:53:20;4.87;;;1.80;;
28431;SDS011;15664;51.302;7.744;2023-02-28T04:55:46;5.15;;;1.90;;
28431;SDS011;15664;51.302;7.744;2023-02-28T04:58:13;5.47;;;2.28;;
28431;SDS011;15664;51.302;7.744;2023-02-28T05:00:39;6.15;;;2.53;;
28431;SDS011;15664;51.302;7.744;2023-02-28T05:03:04;8.52;;;2.53;;
28431;SDS011;15664;51.302;7.744;2023-02-28T05:05:30;8.43;;;2.57;;
28431;SDS011;15664;51.302;7.744;2023-02-28T05:07:55;6.73;;;2.97;;
28431;SDS011;15664;51.302;7.744;2023-02-28T05:10:22;7.10;;;2.65;;
28431;SDS011;15664;51.302;7.744;2023-02-28T05:12:47;6.40;;;2.78;;
28431;SDS011;15664;51.302;7.744;2023-02-28T05:15:13;6.47;;;2.50;;
28431;SDS011;15664;51.302;7.744;2023-02-28T05:17:39;7.15;;;2.30;;
28431;SDS011;15664;51.302;7.744;2023-02-28T05:20:06;4.97;;;2.40;;
28431;SDS011;15664;51.302;7.744;2023-02-28T05:22:32;4.40;;;2.05;;
28431;SDS011;15664;51.302;7.744;2023-02-28T05:24:58;4.47;;;2.17;;
28431;SDS011;15664;51.302;7.744;2023-02-28T05:27:23;5.47;;;2.47;;
28431;SDS011;15664;51.302;7.744;2023-02-28T05:29:49;4.47;;;1.95;;
28431;SDS011;15664;51.302;7.744;2023-02-28T05:32:14;4.27;;;1.50;;
28431;SDS011;15664;51.302;7.744;2023-02-28T05:34:41;5.00;;;2.03;;
28431;SDS011;15664;51.302;7.744;2023-02-28T05:37:11;5.57;;;1.92;;
28431;SDS011;15664;51.302;7.744;2023-02-28T05:39:38;3.75;;;1.55;;
28431;SDS011;15664;51.302;7.744;2023-02-28T05:42:03;4.53;;;1.90;;
28431;SDS011;15664;51.302;7.744;2023-02-28T05:44:29;4.43;;;1.95;;
28431;SDS011;15664;51.302;7.744;2023-02-28T05:46:55;4.57;;;2.15;;
28431;SDS011;15664;51.302;7.744;2023-02-28T05:49:21;5.30;;;1.90;;
28431;SDS011;15664;51.302;7.744;2023-02-28T05:51:47;4.88;;;1.85;;
28431;SDS011;15664;51.302;7.744;2023-02-28T05:54:12;5.90;;;2.00;;
28431;SDS011;15664;51.302;7.744;2023-02-28T05:56:38;5.67;;;1.73;;
28431;SDS011;15664;51.302;7.744;2023-02-28T05:59:05;5.22;;;1.80;;
28431;SDS011;15664;51.302;7.744;2023-02-28T06:01:49;4.10;;;1.83;;
28431;SDS011;15664;51.302;7.744;2023-02-28T06:04:17;3.88;;;1.50;;
28431;SDS011;15664;51.302;7.744;2023-02-28T06:06:44;4.05;;;1.40;;
28431;SDS011;15664;51.302;7.744;2023-02-28T06:09:11;6.07;;;1.98;;
28431;SDS011;15664;51.302;7.744;2023-02-28T06:11:37;4.03;;;1.70;;
28431;SDS011;15664;51.302;7.744;2023-02-28T06:14:03;5.30;;;2.00;;
28431;SDS011;15664;51.302;7.744;2023-02-28T06:16:28;4.53;;;2.00;;
28431;SDS011;15664;51.302;7.744;2023-02-28T06:19:00;5.70;;;1.93;;
28431;SDS011;15664;51.302;7.744;2023-02-28T06:21:27;4.22;;;1.67;;
28431;SDS011;15664;51.302;7.744;2023-02-28T06:23:53;4.78;;;1.77;;
28431;SDS011;15664;51.302;7.744;2023-02-28T06:26:20;5.03;;;2.10;;
28431;SDS011;15664;51.302;7.744;2023-02-28T06:28:45;5.35;;;2.22;;
28431;SDS011;15664;51.302;7.744;2023-02-28T06:31:12;3.25;;;1.55;;
28431;SDS011;15664;51.302;7.744;2023-02-28T06:33:40;4.87;;;2.00;;
28431;SDS011;15664;51.302;7.744;2023-02-28T06:36:07;5.38;;;1.80;;
28431;SDS011;15664;51.302;7.744;2023-02-28T06:38:33;4.22;;;1.75;;
28431;SDS011;15664;51.302;7.744;2023-02-28T06:40:59;7.00;;;1.87;;
28431;SDS011;15664;51.302;7.744;2023-02-28T06:43:27;4.63;;;1.77;;
28431;SDS011;15664;51.302;7.744;2023-02-28T06:45:55;4.55;;;1.77;;
28431;SDS011;15664;51.302;7.744;2023-02-28T06:48:22;4.00;;;1.80;;
28431;SDS011;15664;51.302;7.744;2023-02-28T06:50:48;6.28;;;1.92;;
28431;SDS011;15664;51.302;7.744;2023-02-28T06:53:14;6.78;;;2.28;;
28431;SDS011;15664;51.302;7.744;2023-02-28T06:55:40;5.97;;;2.10;;
28431;SDS011;15664;51.302;7.744;2023-02-28T06:58:06;6.75;;;2.10;;
28431;SDS011;15664;51.302;7.744;2023-02-28T07:00:43;6.53;;;2.30;;
28431;SDS011;15664;51.302;7.744;2023-02-28T07:03:10;6.70;;;1.73;;
28431;SDS011;15664;51.302;7.744;2023-02-28T07:05:36;4.82;;;1.65;;
28431;SDS011;15664;51.302;7.744;2023-02-28T07:08:03;4.82;;;1.95;;
28431;SDS011;15664;51.302;7.744;2023-02-28T07:10:30;4.75;;;1.65;;
28431;SDS011;15664;51.302;7.744;2023-02-28T07:12:55;4.60;;;2.15;;
28431;SDS011;15664;51.302;7.744;2023-02-28T07:15:21;4.93;;;2.17;;
28431;SDS011;15664;51.302;7.744;2023-02-28T07:17:46;5.28;;;1.77;;
28431;SDS011;15664;51.302;7.744;2023-02-28T07:20:12;3.47;;;1.60;;
28431;SDS011;15664;51.302;7.744;2023-02-28T07:22:37;4.07;;;1.80;;
28431;SDS011;15664;51.302;7.744;2023-02-28T07:25:04;4.38;;;1.95;;
28431;SDS011;15664;51.302;7.744;2023-02-28T07:27:30;6.28;;;1.65;;
28431;SDS011;15664;51.302;7.744;2023-02-28T07:29:56;5.23;;;1.87;;
28431;SDS011;15664;51.302;7.744;2023-02-28T07:32:22;4.55;;;1.80;;
28431;SDS011;15664;51.302;7.744;2023-02-28T07:34:47;4.20;;;1.87;;
28431;SDS011;15664;51.302;7.744;2023-02-28T07:37:14;7.68;;;1.65;;
28431;SDS011;15664;51.302;7.744;2023-02-28T07:39:40;4.05;;;1.95;;
28431;SDS011;15664;51.302;7.744;2023-02-28T07:42:08;5.57;;;2.00;;
28431;SDS011;15664;51.302;7.744;2023-02-28T07:44:38;5.38;;;2.10;;
28431;SDS011;15664;51.302;7.744;2023-02-28T07:47:08;3.95;;;1.70;;
28431;SDS011;15664;51.302;7.744;2023-02-28T07:49:35;6.40;;;2.05;;
28431;SDS011;15664;51.302;7.744;2023-02-28T07:52:02;4.60;;;1.70;;
28431;SDS011;15664;51.302;7.744;2023-02-28T07:54:30;5.73;;;1.90;;
28431;SDS011;15664;51.302;7.744;2023-02-28T07:56:57;7.38;;;2.40;;
28431;SDS011;15664;51.302;7.744;2023-02-28T07:59:22;4.45;;;2.08;;
28431;SDS011;15664;51.302;7.744;2023-02-28T08:01:48;6.37;;;1.87;;
28431;SDS011;15664;51.302;7.744;2023-02-28T08:04:18;8.47;;;2.37;;
28431;SDS011;15664;51.302;7.744;2023-02-28T08:06:43;8.60;;;2.72;;
28431;SDS011;15664;51.302;7.744;2023-02-28T08:09:09;11.87;;;2.60;;
28431;SDS011;15664;51.302;7.744;2023-02-28T08:11:34;6.50;;;2.00;;
28431;SDS011;15664;51.302;7.744;2023-02-28T08:14:00;9.80;;;2.80;;
28431;SDS011;15664;51.302;7.744;2023-02-28T08:16:26;9.35;;;2.17;;
28431;SDS011;15664;51.302;7.744;2023-02-28T08:18:51;5.77;;;2.10;;
28431;SDS011;15664;51.302;7.744;2023-02-28T08:21:18;7.33;;;2.30;;
28431;SDS011;15664;51.302;7.744;2023-02-28T08:23:46;7.60;;;3.03;;
28431;SDS011;15664;51.302;7.744;2023-02-28T08:26:13;6.07;;;2.42;;
28431;SDS011;15664;51.302;7.744;2023-02-28T08:28:39;4.67;;;1.80;;
28431;SDS011;15664;51.302;7.744;2023-02-28T08:31:11;6.18;;;2.13;;
28431;SDS011;15664;51.302;7.744;2023-02-28T08:33:38;5.38;;;1.75;;
28431;SDS011;15664;51.302;7.744;2023-02-28T08:36:04;4.97;;;2.00;;
28431;SDS011;15664;51.302;7.744;2023-02-28T08:38:30;5.65;;;2.20;;
28431;SDS011;15664;51.302;7.744;2023-02-28T08:40:59;4.23;;;1.83;;
28431;SDS011;15664;51.302;7.744;2023-02-28T08:43:26;4.68;;;2.28;;
28431;SDS011;15664;51.302;7.744;2023-02-28T08:45:53;7.40;;;2.35;;
28431;SDS011;15664;51.302;7.744;2023-02-28T08:48:19;5.55;;;1.83;;
28431;SDS011;15664;51.302;7.744;2023-02-28T08:50:54;5.17;;;1.83;;
28431;SDS011;15664;51.302;7.744;2023-02-28T08:53:20;7.80;;;2.00;;
28431;SDS011;15664;51.302;7.744;2023-02-28T08:55:46;8.65;;;2.42;;
28431;SDS011;15664;51.302;7.744;2023-02-28T08:58:11;5.37;;;2.03;;
28431;SDS011;15664;51.302;7.744;2023-02-28T09:00:37;5.53;;;1.90;;
28431;SDS011;15664;51.302;7.744;2023-02-28T09:03:02;7.67;;;2.00;;
28431;SDS011;15664;51.302;7.744;2023-02-28T09:05:28;6.55;;;2.15;;
28431;SDS011;15664;51.302;7.744;2023-02-28T09:07:55;4.63;;;1.70;;
28431;SDS011;15664;51.302;7.744;2023-02-28T09:10:20;5.23;;;2.00;;
28431;SDS011;15664;51.302;7.744;2023-02-28T09:12:46;5.47;;;2.03;;
28431;SDS011;15664;51.302;7.744;2023-02-28T09:15:12;5.53;;;2.00;;
28431;SDS011;15664;51.302;7.744;2023-02-28T09:17:38;5.15;;;1.92;;
28431;SDS011;15664;51.302;7.744;2023-02-28T09:20:04;4.70;;;1.90;;
28431;SDS011;15664;51.302;7.744;2023-02-28T09:22:30;5.60;;;2.03;;
28431;SDS011;15664;51.302;7.744;2023-02-28T09:24:55;6.97;;;1.90;;
28431;SDS011;15664;51.302;7.744;2023-02-28T09:27:21;4.13;;;1.90;;
28431;SDS011;15664;51.302;7.744;2023-02-28T09:29:47;5.25;;;2.15;;
28431;SDS011;15664;51.302;7.744;2023-02-28T09:32:12;4.90;;;1.90;;
28431;SDS011;15664;51.302;7.744;2023-02-28T09:34:38;5.67;;;1.63;;
28431;SDS011;15664;51.302;7.744;2023-02-28T09:37:03;4.33;;;1.90;;
28431;SDS011;15664;51.302;7.744;2023-02-28T09:39:28;4.33;;;1.63;;
28431;SDS011;15664;51.302;7.744;2023-02-28T09:41:55;3.65;;;1.75;;
28431;SDS011;15664;51.302;7.744;2023-02-28T09:50:03;3.53;;;1.45;;
28431;SDS011;15664;51.302;7.744;2023-02-28T09:52:42;5.30;;;2.15;;
28431;SDS011;15664;51.302;7.744;2023-02-28T09:55:18;3.55;;;1.45;;
28431;SDS011;15664;51.302;7.744;2023-02-28T09:57:50;4.32;;;1.80;;
28431;SDS011;15664;51.302;7.744;2023-02-28T10:05:52;4.53;;;1.90;;
28431;SDS011;15664;51.302;7.744;2023-02-28T10:08:28;4.85;;;1.60;;
28431;SDS011;15664;51.302;7.744;2023-02-28T10:11:00;4.85;;;1.60;;
28431;SDS011;15664;51.302;7.744;2023-02-28T10:16:43;3.90;;;1.58;;
28431;SDS011;15664;51.302;7.744;2023-02-28T10:22:08;3.30;;;1.23;;
28431;SDS011;15664;51.302;7.744;2023-02-28T10:24:47;3.75;;;1.58;;
28431;SDS011;15664;51.302;7.744;2023-02-28T10:27:20;6.17;;;1.83;;
28431;SDS011;15664;51.302;7.744;2023-02-28T10:29:47;4.20;;;1.48;;
28431;SDS011;15664;51.302;7.744;2023-02-28T10:32:16;5.35;;;2.05;;
28431;SDS011;15664;51.302;7.744;2023-02-28T10:34:43;6.28;;;1.50;;
28431;SDS011;15664;51.302;7.744;2023-02-28T10:37:09;9.83;;;2.67;;
28431;SDS011;15664;51.302;7.744;2023-02-28T10:39:37;4.00;;;1.70;;
28431;SDS011;15664;51.302;7.744;2023-02-28T10:42:27;4.32;;;1.73;;
28431;SDS011;15664;51.302;7.744;2023-02-28T10:45:04;4.80;;;1.95;;
28431;SDS011;15664;51.302;7.744;2023-02-28T10:47:32;4.33;;;1.70;;
28431;SDS011;15664;51.302;7.744;2023-02-28T10:50:01;5.32;;;2.08;;
28431;SDS011;15664;51.302;7.744;2023-02-28T10:52:35;5.22;;;1.98;;
28431;SDS011;15664;51.302;7.744;2023-02-28T10:55:14;4.70;;;1.95;;
28431;SDS011;15664;51.302;7.744;2023-02-28T10:57:44;4.97;;;1.93;;
28431;SDS011;15664;51.302;7.744;2023-02-28T11:02:39;5.07;;;1.88;;
28431;SDS011;15664;51.302;7.744;2023-02-28T11:08:29;4.78;;;1.80;;
28431;SDS011;15664;51.302;7.744;2023-02-28T11:10:56;4.30;;;1.67;;
28431;SDS011;15664;51.302;7.744;2023-02-28T11:13:25;6.13;;;1.97;;
28431;SDS011;15664;51.302;7.744;2023-02-28T11:15:56;4.15;;;1.80;;
28431;SDS011;15664;51.302;7.744;2023-02-28T11:20:52;4.82;;;1.95;;
28431;SDS011;15664;51.302;7.744;2023-02-28T11:23:21;5.28;;;2.17;;
28431;SDS011;15664;51.302;7.744;2023-02-28T11:25:52;4.23;;;1.80;;
28431;SDS011;15664;51.302;7.744;2023-02-28T11:28:29;4.53;;;2.15;;
28431;SDS011;15664;51.302;7.744;2023-02-28T11:36:19;4.78;;;2.20;;
28431;SDS011;15664;51.302;7.744;2023-02-28T11:38:49;6.72;;;2.20;;
28431;SDS011;15664;51.302;7.744;2023-02-28T11:46:45;5.80;;;1.93;;
28431;SDS011;15664;51.302;7.744;2023-02-28T11:55:11;4.93;;;1.92;;
28431;SDS011;15664;51.302;7.744;2023-02-28T11:57:48;6.65;;;2.75;;
28431;SDS011;15664;51.302;7.744;2023-02-28T12:03:11;5.60;;;2.43;;
28431;SDS011;15664;51.302;7.744;2023-02-28T12:06:16;6.13;;;2.22;;
28431;SDS011;15664;51.302;7.744;2023-02-28T12:08:52;4.85;;;2.20;;
28431;SDS011;15664;51.302;7.744;2023-02-28T12:11:26;5.10;;;2.25;;
28431;SDS011;15664;51.302;7.744;2023-02-28T12:16:53;5.50;;;2.37;;
28431;SDS011;15664;51.302;7.744;2023-02-28T12:19:37;4.72;;;2.25;;
28431;SDS011;15664;51.302;7.744;2023-02-28T12:22:21;5.63;;;2.30;;
28431;SDS011;15664;51.302;7.744;2023-02-28T12:27:40;5.03;;;2.35;;
28431;SDS011;15664;51.302;7.744;2023-02-28T12:30:13;7.67;;;2.53;;
28431;SDS011;15664;51.302;7.744;2023-02-28T12:32:48;6.60;;;2.90;;
28431;SDS011;15664;51.302;7.744;2023-02-28T12:35:28;7.18;;;2.65;;
28431;SDS011;15664;51.302;7.744;2023-02-28T12:40:58;7.03;;;2.67;;
28431;SDS011;15664;51.302;7.744;2023-02-28T12:43:28;5.97;;;2.77;;
28431;SDS011;15664;51.302;7.744;2023-02-28T12:46:00;5.22;;;2.67;;
28431;SDS011;15664;51.302;7.744;2023-02-28T12:48:43;7.07;;;2.85;;
28431;SDS011;15664;51.302;7.744;2023-02-28T12:51:11;6.93;;;2.72;;
28431;SDS011;15664;51.302;7.744;2023-02-28T12:59:26;5.93;;;2.67;;
28431;SDS011;15664;51.302;7.744;2023-02-28T13:07:58;7.68;;;2.55;;
28431;SDS011;15664;51.302;7.744;2023-02-28T13:10:43;4.93;;;2.30;;
28431;SDS011;15664;51.302;7.744;2023-02-28T13:13:13;6.50;;;2.90;;
28431;SDS011;15664;51.302;7.744;2023-02-28T13:15:41;7.32;;;2.97;;
28431;SDS011;15664;51.302;7.744;2023-02-28T13:18:27;5.20;;;2.92;;
28431;SDS011;15664;51.302;7.744;2023-02-28T13:20:56;6.65;;;2.67;;
28431;SDS011;15664;51.302;7.744;2023-02-28T13:23:41;6.30;;;3.00;;
28431;SDS011;15664;51.302;7.744;2023-02-28T13:28:59;6.07;;;2.72;;
28431;SDS011;15664;51.302;7.744;2023-02-28T13:31:27;6.93;;;2.53;;
28431;SDS011;15664;51.302;7.744;2023-02-28T13:36:26;5.53;;;2.80;;
28431;SDS011;15664;51.302;7.744;2023-02-28T13:38:55;7.07;;;3.17;;
28431;SDS011;15664;51.302;7.744;2023-02-28T13:43:59;5.27;;;2.53;;
28431;SDS011;15664;51.302;7.744;2023-02-28T13:46:24;6.82;;;3.10;;
28431;SDS011;15664;51.302;7.744;2023-02-28T13:48:49;12.30;;;3.10;;
28431;SDS011;15664;51.302;7.744;2023-02-28T13:51:28;5.93;;;2.43;;
28431;SDS011;15664;51.302;7.744;2023-02-28T13:54:13;6.25;;;3.05;;
28431;SDS011;15664;51.302;7.744;2023-02-28T14:05:32;6.38;;;2.67;;
28431;SDS011;15664;51.302;7.744;2023-02-28T14:07:53;5.70;;;2.50;;
28431;SDS011;15664;51.302;7.744;2023-02-28T14:10:31;7.80;;;2.80;;
28431;SDS011;15664;51.302;7.744;2023-02-28T14:13:03;5.40;;;2.47;;
28431;SDS011;15664;51.302;7.744;2023-02-28T14:18:26;8.70;;;2.85;;
28431;SDS011;15664;51.302;7.744;2023-02-28T14:20:57;8.50;;;3.47;;
28431;SDS011;15664;51.302;7.744;2023-02-28T14:26:50;7.50;;;3.20;;
28431;SDS011;15664;51.302;7.744;2023-02-28T14:32:14;8.30;;;3.47;;
28431;SDS011;15664;51.302;7.744;2023-02-28T14:37:53;6.50;;;3.00;;
28431;SDS011;15664;51.302;7.744;2023-02-28T14:40:21;6.10;;;2.70;;
28431;SDS011;15664;51.302;7.744;2023-02-28T14:42:56;8.52;;;2.72;;
28431;SDS011;15664;51.302;7.744;2023-02-28T14:45:25;6.68;;;2.85;;
28431;SDS011;15664;51.302;7.744;2023-02-28T14:47:55;7.18;;;2.50;;
28431;SDS011;15664;51.302;7.744;2023-02-28T14:50:48;7.38;;;2.75;;
28431;SDS011;15664;51.302;7.744;2023-02-28T14:53:20;8.63;;;2.57;;
28431;SDS011;15664;51.302;7.744;2023-02-28T14:55:48;6.25;;;2.67;;
28431;SDS011;15664;51.302;7.744;2023-02-28T14:58:21;8.52;;;2.60;;
28431;SDS011;15664;51.302;7.744;2023-02-28T15:00:50;7.70;;;3.00;;
28431;SDS011;15664;51.302;7.744;2023-02-28T15:03:22;9.05;;;3.03;;
28431;SDS011;15664;51.302;7.744;2023-02-28T15:05:56;6.60;;;2.70;;
28431;SDS011;15664;51.302;7.744;2023-02-28T15:08:24;7.93;;;2.50;;
28431;SDS011;15664;51.302;7.744;2023-02-28T15:13:21;5.90;;;2.50;;
28431;SDS011;15664;51.302;7.744;2023-02-28T15:15:54;6.70;;;2.50;;
28431;SDS011;15664;51.302;7.744;2023-02-28T15:18:41;5.93;;;2.50;;
28431;SDS011;15664;51.302;7.744;2023-02-28T15:21:12;6.72;;;2.45;;
28431;SDS011;15664;51.302;7.744;2023-02-28T15:23:41;7.28;;;2.72;;
28431;SDS011;15664;51.302;7.744;2023-02-28T15:26:14;6.90;;;3.10;;
28431;SDS011;15664;51.302;7.744;2023-02-28T15:28:42;6.93;;;3.08;;
28431;SDS011;15664;51.302;7.744;2023-02-28T15:31:28;8.30;;;2.77;;
28431;SDS011;15664;51.302;7.744;2023-02-28T15:33:57;5.63;;;2.70;;
28431;SDS011;15664;51.302;7.744;2023-02-28T15:36:31;8.02;;;3.13;;
28431;SDS011;15664;51.302;7.744;2023-02-28T15:38:58;6.53;;;2.95;;
28431;SDS011;15664;51.302;7.744;2023-02-28T15:41:25;8.07;;;3.13;;
28431;SDS011;15664;51.302;7.744;2023-02-28T15:46:59;7.07;;;3.17;;
28431;SDS011;15664;51.302;7.744;2023-02-28T15:49:27;6.30;;;3.08;;
28431;SDS011;15664;51.302;7.744;2023-02-28T15:51:56;7.65;;;3.22;;
28431;SDS011;15664;51.302;7.744;2023-02-28T15:54:27;6.78;;;3.30;;
28431;SDS011;15664;51.302;7.744;2023-02-28T15:57:05;6.83;;;2.47;;
28431;SDS011;15664;51.302;7.744;2023-02-28T15:59:33;7.75;;;3.50;;
28431;SDS011;15664;51.302;7.744;2023-02-28T16:02:02;9.25;;;3.47;;
28431;SDS011;15664;51.302;7.744;2023-02-28T16:04:56;6.88;;;3.00;;
28431;SDS011;15664;51.302;7.744;2023-02-28T16:07:32;7.72;;;3.40;;
28431;SDS011;15664;51.302;7.744;2023-02-28T16:09:58;8.40;;;2.83;;
28431;SDS011;15664;51.302;7.744;2023-02-28T16:12:26;8.48;;;2.90;;
28431;SDS011;15664;51.302;7.744;2023-02-28T16:14:57;7.20;;;3.15;;
28431;SDS011;15664;51.302;7.744;2023-02-28T16:17:26;8.43;;;2.88;;
28431;SDS011;15664;51.302;7.744;2023-02-28T16:19:54;9.23;;;5.32;;
28431;SDS011;15664;51.302;7.744;2023-02-28T16:22:21;6.83;;;3.23;;
28431;SDS011;15664;51.302;7.744;2023-02-28T16:24:46;10.25;;;3.97;;
28431;SDS011;15664;51.302;7.744;2023-02-28T16:27:16;7.57;;;3.40;;
28431;SDS011;15664;51.302;7.744;2023-02-28T16:29:45;8.30;;;3.55;;
28431;SDS011;15664;51.302;7.744;2023-02-28T16:32:13;8.73;;;3.50;;
28431;SDS011;15664;51.302;7.744;2023-02-28T16:34:40;7.57;;;2.77;;
28431;SDS011;15664;51.302;7.744;2023-02-28T16:37:16;3.55;;;1.85;;
28431;SDS011;15664;51.302;7.744;2023-02-28T16:39:43;6.88;;;3.28;;
28431;SDS011;15664;51.302;7.744;2023-02-28T16:42:15;7.53;;;2.67;;
28431;SDS011;15664;51.302;7.744;2023-02-28T16:44:46;8.25;;;3.28;;
28431;SDS011;15664;51.302;7.744;2023-02-28T16:47:12;7.53;;;3.10;;
28431;SDS011;15664;51.302;7.744;2023-02-28T16:49:37;7.73;;;3.20;;
28431;SDS011;15664;51.302;7.744;2023-02-28T16:52:02;9.63;;;2.87;;
28431;SDS011;15664;51.302;7.744;2023-02-28T16:54:28;7.28;;;2.67;;
28431;SDS011;15664;51.302;7.744;2023-02-28T16:56:53;9.43;;;3.33;;
28431;SDS011;15664;51.302;7.744;2023-02-28T16:59:21;7.25;;;3.00;;
28431;SDS011;15664;51.302;7.744;2023-02-28T17:01:49;7.28;;;3.10;;
28431;SDS011;15664;51.302;7.744;2023-02-28T17:04:14;8.23;;;2.63;;
28431;SDS011;15664;51.302;7.744;2023-02-28T17:06:40;12.90;;;4.87;;
28431;SDS011;15664;51.302;7.744;2023-02-28T17:09:08;8.93;;;3.45;;
28431;SDS011;15664;51.302;7.744;2023-02-28T17:11:41;11.32;;;4.80;;
28431;SDS011;15664;51.302;7.744;2023-02-28T17:14:07;9.75;;;3.72;;
28431;SDS011;15664;51.302;7.744;2023-02-28T17:16:33;9.63;;;4.03;;
28431;SDS011;15664;51.302;7.744;2023-02-28T17:19:02;9.15;;;4.28;;
28431;SDS011;15664;51.302;7.744;2023-02-28T17:21:29;8.90;;;3.40;;
28431;SDS011;15664;51.302;7.744;2023-02-28T17:23:56;8.55;;;3.30;;
28431;SDS011;15664;51.302;7.744;2023-02-28T17:26:22;9.53;;;3.37;;
28431;SDS011;15664;51.302;7.744;2023-02-28T17:28:49;9.73;;;3.35;;